Terminal Aerodrome Forecast
Issued by NWS

Home | Current Version | Previous Version | Graphics & Text | Print | Product List | Glossary On
Versions: 1 2 3 4 5 6 7 8 9 10 11 12
471
FTUS45 KGGW 281139
TAFSDY
TAF
KSDY 281139Z 2812/2912 01004KT P6SM SCT140
     FM281500 12004KT P6SM BKN140
     FM282100 06004KT P6SM SCT130
     FM290900 19004KT P6SM SCT110=

USA.gov is the U.S. government's official web portal to all federal, state and local government web resources and services.